Time;durP1;ratioP1;P1;durP2;ratioP2;P2;SDS_P1;SDS_P2;PMS_P1;PMS_P2;Temp;Humidity;BMP_temperature;BMP_pressure;BME280_temperature;BME280_humidity;BME280_pressure;Samples;Min_cycle;Max_cycle;Signal;HPM_P1;HPM_P2
2022/01/02 00:00:25;;;;;;;18.35;6.90;;;11.50;99.90;;;;;;4972855;28;20133;-81
2022/01/02 00:02:58;;;;;;;11.82;6.90;;;11.60;99.90;;;;;;4956597;28;20039;-82
2022/01/02 00:05:24;;;;;;;11.57;6.20;;;11.50;99.90;;;;;;4968685;28;20170;-82
2022/01/02 00:08:02;;;;;;;11.73;7.10;;;11.50;99.90;;;;;;4972014;28;20514;-82
2022/01/02 00:10:34;;;;;;;16.58;7.47;;;11.60;99.90;;;;;;5003112;28;20052;-82
2022/01/02 00:13:01;;;;;;;11.23;6.55;;;11.60;99.90;;;;;;4958457;28;20277;-82
2022/01/02 00:15:28;;;;;;;12.68;6.45;;;11.60;99.90;;;;;;4971194;28;20069;-82
2022/01/02 00:18:07;;;;;;;13.38;7.32;;;11.60;99.90;;;;;;4989346;28;20042;-83
2022/01/02 00:20:36;;;;;;;13.77;7.32;;;11.50;99.90;;;;;;4961548;28;20046;-82
2022/01/02 00:23:07;;;;;;;14.13;7.43;;;11.60;99.90;;;;;;4988869;28;20034;-82
2022/01/02 00:25:38;;;;;;;11.63;7.00;;;11.60;99.90;;;;;;4968990;28;20134;-82
2022/01/02 00:28:06;;;;;;;11.23;6.93;;;11.60;99.90;;;;;;4954526;28;20052;-82
2022/01/02 00:30:33;;;;;;;15.38;7.32;;;11.70;99.90;;;;;;4965287;28;20510;-82
2022/01/02 00:33:00;;;;;;;14.45;6.93;;;11.70;99.90;;;;;;4985455;28;20089;-82
2022/01/02 00:35:26;;;;;;;11.32;7.10;;;11.60;99.90;;;;;;4968260;28;20049;-82
2022/01/02 00:37:52;;;;;;;12.18;7.30;;;11.70;99.90;;;;;;4968865;28;20031;-83
2022/01/02 00:40:18;;;;;;;11.98;6.75;;;11.70;99.90;;;;;;4956584;28;20041;-82
2022/01/02 00:42:44;;;;;;;14.77;6.88;;;11.70;99.90;;;;;;4937554;28;20041;-82
2022/01/02 00:45:23;;;;;;;13.27;7.45;;;11.70;99.90;;;;;;5002725;28;20034;-82
2022/01/02 00:48:13;;;;;;;10.23;6.63;;;11.70;99.90;;;;;;4959730;28;20049;-82
2022/01/02 00:50:50;;;;;;;13.13;7.28;;;11.70;99.90;;;;;;4964680;28;20077;-82
2022/01/02 00:53:18;;;;;;;15.65;7.65;;;11.70;99.90;;;;;;4949593;28;20038;-80
2022/01/02 00:55:46;;;;;;;12.77;7.35;;;11.60;99.90;;;;;;4954792;28;20049;-82
2022/01/02 00:58:14;;;;;;;11.48;7.00;;;11.60;99.90;;;;;;4954710;28;20100;-82
2022/01/02 01:00:47;;;;;;;13.68;7.60;;;11.60;99.90;;;;;;4950731;28;20142;-81
2022/01/02 01:03:20;;;;;;;9.68;7.60;;;11.60;99.90;;;;;;4965539;28;20519;-81
2022/01/02 01:05:47;;;;;;;11.35;7.55;;;11.60;99.90;;;;;;4952968;28;20240;-81
2022/01/02 01:08:13;;;;;;;13.27;7.85;;;11.60;99.90;;;;;;4965213;28;20461;-81
2022/01/02 01:10:43;;;;;;;16.02;7.72;;;11.60;99.90;;;;;;4989870;28;20129;-83
2022/01/02 01:13:10;;;;;;;11.60;7.65;;;11.60;99.90;;;;;;4976498;28;20077;-82
2022/01/02 01:15:38;;;;;;;12.88;7.63;;;11.90;99.90;;;;;;4978323;28;20042;-81
2022/01/02 01:18:04;;;;;;;20.20;8.93;;;11.50;99.90;;;;;;4992714;28;20058;-83
2022/01/02 01:20:37;;;;;;;14.23;7.88;;;11.60;99.90;;;;;;4993250;28;20039;-82
2022/01/02 01:23:03;;;;;;;16.52;8.57;;;11.50;99.90;;;;;;5000608;28;20073;-81
2022/01/02 01:25:29;;;;;;;23.88;8.55;;;11.60;99.90;;;;;;4976580;28;21273;-82
2022/01/02 01:27:55;;;;;;;14.50;8.32;;;11.60;99.90;;;;;;4983669;28;20038;-83
2022/01/02 01:30:26;;;;;;;14.55;8.10;;;11.50;99.90;;;;;;4992222;28;20050;-82
2022/01/02 01:32:53;;;;;;;15.25;7.60;;;11.60;99.90;;;;;;4993678;28;20085;-82
2022/01/02 01:35:20;;;;;;;18.38;8.50;;;11.60;99.90;;;;;;4975257;28;20042;-82
2022/01/02 01:37:46;;;;;;;13.07;8.15;;;11.60;99.90;;;;;;4957728;28;20129;-82
2022/01/02 01:40:12;;;;;;;16.85;8.38;;;11.60;99.90;;;;;;4974706;28;20137;-80
2022/01/02 01:42:42;;;;;;;16.25;8.63;;;11.60;99.90;;;;;;4988998;28;20053;-81
2022/01/02 01:47:47;;;;;;;18.05;8.98;;;11.50;99.90;;;;;;4986704;28;20038;-82
2022/01/02 01:50:13;;;;;;;15.82;8.20;;;11.50;99.90;;;;;;4973328;28;20129;-82
2022/01/02 01:52:39;;;;;;;15.20;8.82;;;11.50;99.90;;;;;;4971128;28;20154;-82
2022/01/02 01:55:06;;;;;;;15.35;8.98;;;11.50;99.90;;;;;;4991227;28;20116;-82
2022/01/02 01:57:32;;;;;;;18.48;9.63;;;11.50;99.90;;;;;;4956309;28;20037;-82
2022/01/02 01:59:58;;;;;;;18.80;9.35;;;11.50;99.90;;;;;;4956042;28;20048;-81
2022/01/02 02:02:25;;;;;;;17.75;8.98;;;11.50;99.90;;;;;;4973794;28;20038;-81
2022/01/02 02:04:51;;;;;;;21.65;11.00;;;11.60;99.90;;;;;;4970136;28;20034;-80
2022/01/02 02:07:19;;;;;;;18.33;9.77;;;11.40;99.90;;;;;;4999962;23;20048;-57
2022/01/02 02:10:07;;;;;;;18.70;9.90;;;11.40;99.90;;;;;;5008330;28;21024;-58
2022/01/02 02:12:33;;;;;;;20.75;10.48;;;11.40;99.90;;;;;;5008903;28;20070;-57
2022/01/02 02:14:59;;;;;;;18.50;11.23;;;11.30;99.90;;;;;;5018718;28;20524;-55
2022/01/02 02:17:26;;;;;;;19.48;11.55;;;11.30;99.90;;;;;;5019422;28;20055;-58
2022/01/02 02:19:57;;;;;;;21.08;11.18;;;11.30;99.90;;;;;;5010459;28;20034;-58
2022/01/02 02:22:25;;;;;;;23.23;11.52;;;11.30;99.90;;;;;;5008793;28;20531;-57
2022/01/02 02:24:50;;;;;;;16.70;10.85;;;11.20;99.90;;;;;;5014659;28;20041;-56
2022/01/02 02:27:22;;;;;;;24.95;11.85;;;11.20;99.90;;;;;;5005471;28;20049;-57
2022/01/02 02:29:47;;;;;;;18.38;10.73;;;11.20;99.90;;;;;;5008053;28;20077;-56
2022/01/02 02:32:13;;;;;;;28.42;12.57;;;11.10;99.90;;;;;;5007060;28;20112;-57
2022/01/02 02:34:39;;;;;;;23.02;11.02;;;11.10;99.90;;;;;;5011606;28;20026;-56
2022/01/02 02:37:05;;;;;;;17.33;10.00;;;11.10;99.90;;;;;;5010489;28;20069;-55
2022/01/02 02:39:33;;;;;;;18.50;10.35;;;11.10;99.90;;;;;;5008831;28;20068;-55
2022/01/02 02:41:59;;;;;;;22.33;11.40;;;11.10;99.90;;;;;;5008251;28;20057;-57
2022/01/02 02:44:36;;;;;;;17.88;10.77;;;11.10;99.90;;;;;;5027110;28;20542;-54
2022/01/02 02:49:46;;;;;;;21.63;11.10;;;11.10;99.90;;;;;;5016419;28;20484;-56
2022/01/02 02:52:31;;;;;;;21.42;13.75;;;11.10;99.90;;;;;;5011712;28;20136;-58
2022/01/02 02:54:57;;;;;;;;;;;11.10;99.90;;;;;;5010785;28;20516;-56
2022/01/02 02:57:22;;;;;;;20.52;10.48;;;11.10;99.90;;;;;;5014556;28;19917;-59
2022/01/02 02:59:48;;;;;;;21.75;11.88;;;11.10;99.90;;;;;;5009573;28;20524;-56
2022/01/02 03:02:14;;;;;;;20.90;11.10;;;11.10;99.90;;;;;;5017070;28;20125;-58
2022/01/02 03:04:39;;;;;;;22.90;11.95;;;11.10;99.90;;;;;;5011552;28;20038;-58
2022/01/02 03:07:05;;;;;;;18.42;11.50;;;11.10;99.90;;;;;;5011810;28;20560;-57
2022/01/02 03:09:39;;;;;;;23.10;12.52;;;11.10;99.90;;;;;;5005082;28;20025;-58
2022/01/02 03:12:06;;;;;;;24.80;12.52;;;11.10;99.90;;;;;;5010197;28;20117;-57
2022/01/02 03:14:32;;;;;;;23.23;11.90;;;11.10;99.90;;;;;;5012129;28;20146;-56
2022/01/02 03:16:58;;;;;;;18.52;11.48;;;11.10;99.90;;;;;;5013893;28;20077;-59
2022/01/02 03:19:24;;;;;;;22.13;12.13;;;11.10;99.90;;;;;;5010638;28;20038;-59
2022/01/02 03:21:50;;;;;;;20.52;11.90;;;11.10;99.90;;;;;;5013946;28;20442;-58
2022/01/02 03:24:16;;;;;;;21.48;11.35;;;11.10;99.90;;;;;;5011972;28;20038;-57
2022/01/02 03:26:41;;;;;;;16.60;10.30;;;11.10;99.90;;;;;;5012049;28;20030;-57
2022/01/02 03:29:07;;;;;;;25.15;12.13;;;11.10;99.90;;;;;;5010895;28;20036;-58
2022/01/02 03:31:33;;;;;;;22.75;10.93;;;11.10;99.90;;;;;;5006651;28;20089;-57
2022/01/02 03:33:58;;;;;;;25.92;11.25;;;11.10;99.90;;;;;;5017248;28;20054;-59
2022/01/02 03:36:24;;;;;;;21.95;10.70;;;11.10;99.90;;;;;;5016526;28;20076;-58
2022/01/02 03:38:50;;;;;;;22.40;10.60;;;11.10;99.90;;;;;;5010770;28;20101;-57
2022/01/02 03:41:16;;;;;;;23.35;11.13;;;11.10;99.90;;;;;;4992468;28;20046;-58
2022/01/02 03:43:42;;;;;;;20.42;9.98;;;11.10;99.90;;;;;;4998491;28;20042;-57
2022/01/02 03:46:07;;;;;;;23.05;10.68;;;11.10;99.90;;;;;;4989348;28;20125;-58
2022/01/02 03:48:34;;;;;;;26.65;10.48;;;11.10;99.90;;;;;;5000251;28;20038;-57
2022/01/02 03:51:00;;;;;;;22.98;9.68;;;11.20;99.90;;;;;;4992345;28;20057;-57
2022/01/02 03:53:26;;;;;;;18.13;9.77;;;11.20;99.90;;;;;;4985396;28;20040;-58
2022/01/02 03:55:52;;;;;;;21.73;9.48;;;11.20;99.90;;;;;;4995324;28;20042;-59
2022/01/02 03:58:18;;;;;;;24.10;10.27;;;11.20;99.90;;;;;;4998101;28;20046;-58
2022/01/02 04:00:44;;;;;;;23.70;9.80;;;11.20;99.90;;;;;;4999499;28;20041;-57
2022/01/02 04:03:10;;;;;;;21.15;10.23;;;11.20;99.90;;;;;;4992684;28;20066;-57
2022/01/02 04:05:36;;;;;;;22.58;9.68;;;11.20;99.90;;;;;;5005904;28;20123;-57
2022/01/02 04:08:03;;;;;;;21.73;9.90;;;11.20;99.90;;;;;;5012101;28;20082;-56
2022/01/02 04:10:28;;;;;;;23.38;10.80;;;11.20;99.90;;;;;;5003169;28;20550;-57
2022/01/02 04:12:54;;;;;;;25.17;10.20;;;11.20;99.90;;;;;;4999881;28;20049;-57
2022/01/02 04:15:20;;;;;;;25.58;10.43;;;11.20;99.90;;;;;;4985870;28;20050;-58
2022/01/02 04:17:46;;;;;;;22.02;9.93;;;11.20;99.90;;;;;;4992246;28;20061;-58
2022/01/02 04:20:14;;;;;;;23.08;10.57;;;11.10;99.90;;;;;;5000492;28;20037;-59
2022/01/02 04:22:41;;;;;;;20.83;10.32;;;11.10;99.90;;;;;;4993029;28;20037;-57
2022/01/02 04:25:07;;;;;;;21.92;10.52;;;11.10;99.90;;;;;;4994662;28;20060;-58
2022/01/02 04:27:34;;;;;;;21.60;11.40;;;11.10;99.90;;;;;;5001763;28;20041;-58
2022/01/02 04:30:00;;;;;;;20.80;10.45;;;11.10;99.90;;;;;;5008456;28;20046;-59
2022/01/02 04:32:25;;;;;;;27.95;10.65;;;11.10;99.90;;;;;;4980490;28;20095;-59
2022/01/02 04:34:51;;;;;;;23.92;11.13;;;11.10;99.90;;;;;;5002394;28;20120;-58
2022/01/02 04:37:17;;;;;;;27.90;12.00;;;11.00;99.90;;;;;;4997490;28;20591;-59
2022/01/02 04:39:44;;;;;;;20.58;10.45;;;11.10;99.90;;;;;;5002228;28;20197;-58
2022/01/02 04:42:10;;;;;;;17.10;10.32;;;11.00;99.90;;;;;;4999179;28;20048;-59
2022/01/02 04:44:36;;;;;;;22.70;11.32;;;11.00;99.90;;;;;;5001450;28;20773;-59
2022/01/02 04:47:02;;;;;;;17.58;11.40;;;11.00;99.90;;;;;;4995894;28;20115;-59
2022/01/02 04:49:28;;;;;;;24.10;11.10;;;11.10;99.90;;;;;;4994941;28;20127;-58
2022/01/02 04:51:54;;;;;;;25.25;10.77;;;11.00;99.90;;;;;;4988894;28;20451;-58
2022/01/02 04:54:21;;;;;;;26.42;11.57;;;11.00;99.90;;;;;;4999022;28;20449;-59
2022/01/02 04:56:46;;;;;;;28.58;10.77;;;11.00;99.90;;;;;;4996534;28;20045;-58
2022/01/02 04:59:12;;;;;;;25.83;12.40;;;11.00;99.90;;;;;;4994429;28;20050;-58
2022/01/02 05:01:38;;;;;;;23.25;10.73;;;11.00;99.90;;;;;;4993664;28;20547;-58
2022/01/02 05:04:04;;;;;;;21.67;10.35;;;11.10;99.90;;;;;;5003958;28;20052;-59
2022/01/02 05:06:29;;;;;;;25.65;10.82;;;11.10;99.90;;;;;;4999614;28;20083;-59
2022/01/02 05:08:55;;;;;;;28.48;11.32;;;11.10;99.90;;;;;;5004825;28;20496;-59
2022/01/02 05:11:21;;;;;;;23.75;9.90;;;11.10;99.90;;;;;;5003662;28;20046;-59
2022/01/02 05:13:46;;;;;;;25.30;10.38;;;11.10;99.90;;;;;;4996828;28;20041;-59
2022/01/02 05:16:12;;;;;;;22.90;10.57;;;11.10;99.90;;;;;;4996551;28;20080;-59
2022/01/02 05:18:38;;;;;;;22.35;9.45;;;11.10;99.90;;;;;;5001484;28;20120;-58
2022/01/02 05:21:04;;;;;;;19.60;9.75;;;11.10;99.90;;;;;;5003274;28;20695;-58
2022/01/02 05:23:30;;;;;;;21.60;11.98;;;11.20;99.90;;;;;;5004221;28;20080;-58
2022/01/02 05:25:59;;;;;;;19.48;9.35;;;11.20;99.90;;;;;;5001342;28;20042;-59
2022/01/02 05:28:26;;;;;;;23.33;9.80;;;11.20;99.90;;;;;;4998204;28;20161;-59
2022/01/02 05:30:52;;;;;;;21.80;9.82;;;11.20;99.90;;;;;;4996599;28;20042;-58
2022/01/02 05:33:17;;;;;;;20.13;9.60;;;11.20;99.90;;;;;;4994494;28;20037;-58
2022/01/02 05:35:43;;;;;;;20.02;8.68;;;11.20;99.90;;;;;;4994867;28;20037;-58
2022/01/02 05:38:09;;;;;;;19.00;8.85;;;11.20;99.90;;;;;;4994603;28;20045;-59
2022/01/02 05:40:35;;;;;;;23.25;9.30;;;11.30;99.90;;;;;;4994195;28;20073;-59
2022/01/02 05:43:02;;;;;;;24.27;8.77;;;11.30;99.90;;;;;;5001645;28;20092;-58
2022/01/02 05:45:28;;;;;;;22.20;9.05;;;11.30;99.90;;;;;;4997739;28;20091;-56
2022/01/02 05:47:54;;;;;;;18.83;8.40;;;11.30;99.90;;;;;;4999328;28;20034;-56
2022/01/02 05:50:20;;;;;;;18.40;7.88;;;11.30;99.90;;;;;;4996453;28;20041;-56
2022/01/02 05:52:46;;;;;;;19.85;8.65;;;11.30;99.90;;;;;;5001799;28;20042;-56
2022/01/02 05:55:12;;;;;;;21.98;8.70;;;11.30;99.90;;;;;;4988002;28;20456;-56
2022/01/02 05:57:37;;;;;;;23.55;8.45;;;11.30;99.90;;;;;;4996933;28;20033;-56
2022/01/02 06:00:04;;;;;;;20.80;8.10;;;11.30;99.90;;;;;;4995446;28;20277;-57
2022/01/02 06:02:31;;;;;;;24.73;8.48;;;11.40;99.90;;;;;;4995010;28;20045;-57
2022/01/02 06:04:58;;;;;;;23.42;8.45;;;11.30;99.90;;;;;;4996343;28;20074;-57
2022/01/02 06:07:23;;;;;;;20.73;8.85;;;11.30;99.90;;;;;;4996367;28;20053;-56
2022/01/02 06:09:49;;;;;;;20.85;8.02;;;11.30;99.90;;;;;;5003445;28;20030;-56
2022/01/02 06:12:15;;;;;;;17.17;7.18;;;11.40;99.90;;;;;;4998615;28;20461;-56
2022/01/02 06:14:40;;;;;;;19.17;7.97;;;11.40;99.90;;;;;;5001102;28;20038;-57
2022/01/02 06:17:06;;;;;;;22.38;7.57;;;11.40;99.90;;;;;;4995803;28;20350;-55
2022/01/02 06:19:32;;;;;;;17.95;7.35;;;11.40;99.90;;;;;;5000791;28;20034;-57
2022/01/02 06:21:58;;;;;;;18.52;6.43;;;11.40;99.90;;;;;;4994157;28;20255;-57
2022/01/02 06:24:23;;;;;;;18.90;6.85;;;11.50;99.90;;;;;;5005559;28;20112;-56
2022/01/02 06:26:49;;;;;;;16.67;5.82;;;11.50;99.90;;;;;;4995682;28;20125;-57
2022/01/02 06:29:15;;;;;;;17.25;6.05;;;11.50;99.90;;;;;;5000132;28;20138;-57
2022/01/02 06:31:40;;;;;;;13.52;5.90;;;11.50;99.90;;;;;;4977887;28;20042;-54
2022/01/02 06:34:06;;;;;;;14.07;6.50;;;11.50;99.90;;;;;;4997365;28;20044;-56
2022/01/02 06:36:32;;;;;;;17.48;6.45;;;11.50;99.90;;;;;;5001691;28;20096;-57
2022/01/02 06:38:58;;;;;;;17.35;5.65;;;11.50;99.90;;;;;;5003179;28;20038;-57
2022/01/02 06:41:23;;;;;;;16.73;5.60;;;11.50;99.90;;;;;;4998426;28;20038;-57
2022/01/02 06:43:52;;;;;;;15.90;5.20;;;11.50;99.90;;;;;;5001356;28;20049;-57
2022/01/02 06:46:21;;;;;;;14.77;5.03;;;11.60;99.90;;;;;;4992064;28;20064;-56
2022/01/02 06:48:47;;;;;;;17.05;5.82;;;11.60;99.90;;;;;;5000016;28;20034;-57
2022/01/02 06:51:13;;;;;;;16.33;5.40;;;11.60;99.90;;;;;;4992561;28;20073;-57
2022/01/02 06:53:39;;;;;;;16.00;5.47;;;11.60;99.90;;;;;;5001713;28;20029;-57
2022/01/02 06:56:05;;;;;;;14.48;5.25;;;11.70;99.90;;;;;;4999565;28;20524;-57
2022/01/02 06:58:31;;;;;;;16.08;4.45;;;11.70;99.90;;;;;;4993677;28;20124;-57
2022/01/02 07:00:57;;;;;;;17.10;5.20;;;11.70;99.90;;;;;;4992851;28;20489;-57
2022/01/02 07:03:24;;;;;;;15.10;5.32;;;11.70;99.90;;;;;;4990174;28;20052;-56
2022/01/02 07:05:51;;;;;;;13.15;4.47;;;11.70;99.90;;;;;;5002425;28;20085;-56
2022/01/02 07:08:16;;;;;;;14.15;4.95;;;11.70;99.90;;;;;;4996110;28;20081;-57
2022/01/02 07:10:42;;;;;;;13.88;4.65;;;11.80;99.90;;;;;;4992612;28;20161;-55
2022/01/02 07:13:08;;;;;;;10.20;4.30;;;11.80;99.90;;;;;;4995339;28;20045;-56
2022/01/02 07:15:34;;;;;;;15.48;4.30;;;11.80;99.90;;;;;;4995469;28;20046;-57
2022/01/02 07:18:00;;;;;;;15.45;4.90;;;11.80;99.90;;;;;;4998076;28;20037;-57
2022/01/02 07:20:26;;;;;;;14.27;4.50;;;11.90;99.90;;;;;;5000316;28;20063;-56
2022/01/02 07:22:52;;;;;;;14.18;3.75;;;11.90;99.90;;;;;;5000664;28;20038;-58
2022/01/02 07:25:18;;;;;;;12.40;3.83;;;11.90;99.90;;;;;;5000013;28;20037;-57
2022/01/02 07:27:44;;;;;;;12.27;3.70;;;11.90;99.90;;;;;;4991710;28;20056;-58
2022/01/02 07:30:10;;;;;;;12.13;3.60;;;12.00;99.90;;;;;;4990384;28;20027;-57
2022/01/02 07:32:37;;;;;;;9.13;3.85;;;12.00;99.90;;;;;;4995285;28;20117;-57
2022/01/02 07:35:06;;;;;;;9.82;4.10;;;12.00;99.90;;;;;;4993509;28;20057;-57
2022/01/02 07:37:33;;;;;;;14.07;3.97;;;12.00;99.90;;;;;;4987070;28;20418;-58
2022/01/02 07:39:58;;;;;;;11.70;3.78;;;12.00;99.90;;;;;;4980375;28;20073;-58
2022/01/02 07:42:24;;;;;;;9.43;3.60;;;12.00;99.90;;;;;;4981061;28;20475;-57
2022/01/02 07:44:50;;;;;;;12.13;3.83;;;12.00;99.90;;;;;;4994808;28;20041;-57
2022/01/02 07:47:15;;;;;;;11.00;4.05;;;12.00;99.90;;;;;;4982747;28;20521;-58
2022/01/02 07:49:41;;;;;;;10.77;4.38;;;12.00;99.90;;;;;;4996282;28;20041;-58
2022/01/02 07:52:07;;;;;;;10.68;4.07;;;12.00;99.90;;;;;;4977897;28;20037;-57
2022/01/02 07:54:33;;;;;;;10.82;4.28;;;12.00;99.90;;;;;;4985754;28;20057;-58
2022/01/02 07:56:58;;;;;;;11.90;4.70;;;12.00;99.90;;;;;;4993420;28;20046;-58
2022/01/02 07:59:24;;;;;;;9.98;4.20;;;11.90;99.90;;;;;;5000159;28;20076;-58
2022/01/02 08:01:50;;;;;;;15.13;4.93;;;12.00;99.90;;;;;;4983251;28;20134;-58
2022/01/02 08:04:16;;;;;;;10.38;5.07;;;11.90;99.90;;;;;;5003475;28;20084;-58
2022/01/02 08:06:41;;;;;;;10.55;4.85;;;11.90;99.90;;;;;;5016474;28;20034;-58
2022/01/02 08:09:07;;;;;;;12.25;5.88;;;11.90;99.90;;;;;;4995526;28;20883;-59
2022/01/02 08:11:33;;;;;;;9.77;5.22;;;11.80;99.90;;;;;;4987980;28;20103;-58
2022/01/02 08:14:00;;;;;;;14.05;6.30;;;11.80;99.90;;;;;;5009331;22;20061;-65
2022/01/02 08:16:26;;;;;;;10.30;5.70;;;11.70;99.90;;;;;;5002344;28;20322;-65
2022/01/02 08:18:52;;;;;;;10.90;5.18;;;11.70;99.90;;;;;;4977200;28;20169;-63
2022/01/02 08:21:18;;;;;;;12.45;5.93;;;11.60;99.90;;;;;;5012256;28;20041;-63
2022/01/02 08:23:43;;;;;;;12.20;5.80;;;11.60;99.90;;;;;;5005101;28;20069;-63
2022/01/02 08:26:09;;;;;;;12.38;6.00;;;11.60;99.90;;;;;;4998057;28;20124;-63
2022/01/02 08:28:35;;;;;;;11.23;5.93;;;11.60;99.90;;;;;;4996212;28;20096;-63
2022/01/02 08:31:01;;;;;;;14.15;6.00;;;11.50;99.90;;;;;;4993095;28;20107;-63
2022/01/02 08:33:27;;;;;;;9.77;5.75;;;11.50;99.90;;;;;;4979593;28;20042;-63
2022/01/02 08:35:52;;;;;;;13.45;5.50;;;11.50;99.90;;;;;;4994025;28;20037;-63
2022/01/02 08:38:18;;;;;;;10.00;5.15;;;11.50;99.90;;;;;;5025749;28;20053;-64
2022/01/02 08:40:44;;;;;;;11.10;4.63;;;11.50;99.90;;;;;;5012585;28;20041;-64
2022/01/02 08:43:11;;;;;;;12.02;4.60;;;11.40;99.90;;;;;;4999164;28;20038;-63
2022/01/02 08:45:38;;;;;;;7.90;4.80;;;11.40;99.90;;;;;;4991642;28;20054;-63
2022/01/02 08:48:04;;;;;;;8.02;4.43;;;11.40;99.90;;;;;;5019299;28;20113;-63
2022/01/02 08:50:31;;;;;;;9.95;4.75;;;11.40;99.90;;;;;;5022146;28;20046;-62
2022/01/02 08:52:56;;;;;;;8.70;4.90;;;11.40;99.90;;;;;;4983971;28;20431;-63
2022/01/02 08:55:23;;;;;;;8.50;4.65;;;11.40;99.90;;;;;;4970498;28;20041;-62
2022/01/02 08:57:48;;;;;;;9.25;5.35;;;11.30;99.90;;;;;;4973689;28;20054;-63
2022/01/02 09:00:15;;;;;;;9.98;5.75;;;11.30;99.90;;;;;;4966422;28;20932;-63
2022/01/02 09:02:41;;;;;;;8.23;6.05;;;11.30;99.90;;;;;;5013154;28;20034;-63
2022/01/02 09:05:08;;;;;;;13.23;7.65;;;11.30;99.90;;;;;;4977966;28;21756;-63
2022/01/02 09:07:34;;;;;;;11.65;7.05;;;11.30;99.90;;;;;;5003575;28;20050;-63
2022/01/02 09:10:00;;;;;;;11.00;7.22;;;11.30;99.90;;;;;;5004961;28;20046;-63
2022/01/02 09:12:26;;;;;;;10.23;7.75;;;11.30;99.90;;;;;;5014187;28;20455;-63
2022/01/02 09:14:52;;;;;;;12.27;8.52;;;11.20;99.90;;;;;;4999604;28;20048;-63
2022/01/02 09:17:18;;;;;;;14.65;7.53;;;11.30;99.90;;;;;;5007517;28;20070;-63
2022/01/02 09:19:44;;;;;;;12.05;7.38;;;11.20;99.90;;;;;;4966771;28;20527;-63
2022/01/02 09:22:10;;;;;;;16.17;7.72;;;11.20;99.90;;;;;;5005948;28;20047;-63
2022/01/02 09:24:35;;;;;;;12.95;6.70;;;11.10;99.90;;;;;;5005369;28;20049;-63
2022/01/02 09:27:01;;;;;;;12.20;7.07;;;11.10;99.90;;;;;;5001497;28;20435;-64
2022/01/02 09:29:28;;;;;;;15.27;8.00;;;11.10;99.90;;;;;;4994208;28;20510;-64
2022/01/02 09:31:53;;;;;;;14.77;7.32;;;11.10;99.90;;;;;;5014473;28;20110;-64
2022/01/02 09:34:19;;;;;;;12.82;8.43;;;11.10;99.90;;;;;;5019963;28;20067;-64
2022/01/02 09:36:45;;;;;;;15.13;8.68;;;11.10;99.90;;;;;;4994028;28;20088;-64
2022/01/02 09:39:11;;;;;;;15.48;7.97;;;11.10;99.90;;;;;;5001672;28;20121;-64
2022/01/02 09:41:39;;;;;;;14.43;7.55;;;11.10;99.90;;;;;;4994320;28;20434;-64
2022/01/02 09:44:05;;;;;;;16.95;9.10;;;11.10;99.90;;;;;;4991012;28;20042;-64
2022/01/02 09:46:32;;;;;;;13.70;7.85;;;11.10;99.90;;;;;;5009955;28;20041;-64
2022/01/02 09:48:58;;;;;;;17.73;8.68;;;11.10;99.90;;;;;;5026762;28;20322;-64
2022/01/02 09:51:26;;;;;;;13.90;7.72;;;11.10;99.90;;;;;;4993872;28;20107;-64
2022/01/02 09:53:54;;;;;;;11.57;7.50;;;11.10;99.90;;;;;;4994610;28;20411;-66
2022/01/02 09:56:21;;;;;;;12.63;8.20;;;11.10;99.90;;;;;;5010715;28;20045;-66
2022/01/02 09:58:46;;;;;;;13.13;8.10;;;11.10;99.90;;;;;;4994332;28;20405;-67
2022/01/02 10:01:21;;;;;;;12.98;8.32;;;11.10;99.90;;;;;;5010688;28;20056;-67
2022/01/02 10:03:54;;;;;;;13.70;8.07;;;11.10;99.90;;;;;;4997150;28;20503;-67
2022/01/02 10:06:21;;;;;;;13.05;7.65;;;11.10;99.90;;;;;;4993646;28;20043;-65
2022/01/02 10:08:47;;;;;;;19.00;9.00;;;11.10;99.90;;;;;;4994044;28;20400;-64
2022/01/02 10:11:22;;;;;;;15.05;7.97;;;11.10;99.90;;;;;;4978364;28;20322;-67
2022/01/02 10:13:50;;;;;;;11.98;7.78;;;11.10;99.90;;;;;;4993654;28;20038;-67
2022/01/02 10:16:28;;;;;;;12.93;7.70;;;11.10;99.90;;;;;;4994079;28;20395;-65
2022/01/02 10:18:55;;;;;;;15.27;8.18;;;11.10;99.90;;;;;;4982031;28;20511;-64
2022/01/02 10:21:30;;;;;;;13.98;8.02;;;11.10;99.90;;;;;;4993394;28;20100;-67
2022/01/02 10:24:10;;;;;;;14.68;7.30;;;11.10;99.90;;;;;;4993701;28;20485;-65
2022/01/02 10:26:36;;;;;;;16.77;7.45;;;11.10;99.90;;;;;;4974871;28;20408;-65
2022/01/02 10:29:13;;;;;;;18.20;7.22;;;11.10;99.90;;;;;;5013267;28;20038;-64
2022/01/02 10:31:39;;;;;;;17.65;7.40;;;11.10;99.90;;;;;;4982556;28;20454;-65
2022/01/02 10:34:05;;;;;;;20.38;6.75;;;11.10;99.90;;;;;;5010920;28;20046;-64
2022/01/02 10:36:37;;;;;;;18.55;6.80;;;11.10;99.90;;;;;;5009903;28;20042;-65
2022/01/02 10:39:15;;;;;;;17.20;7.47;;;11.10;99.90;;;;;;5026596;28;20038;-64
2022/01/02 10:41:49;;;;;;;14.77;7.13;;;11.10;99.90;;;;;;4988540;28;20100;-67
2022/01/02 10:44:21;;;;;;;17.92;6.18;;;11.20;99.90;;;;;;4988352;28;20105;-67
2022/01/02 10:47:11;;;;;;;18.40;6.13;;;11.10;99.90;;;;;;4990155;28;20042;-64
2022/01/02 10:49:55;;;;;;;19.08;6.43;;;11.10;99.90;;;;;;4992762;28;20114;-67
2022/01/02 10:52:29;;;;;;;18.98;6.65;;;11.20;99.90;;;;;;5022600;28;20052;-62
2022/01/02 10:54:58;;;;;;;19.48;6.28;;;11.20;99.90;;;;;;4977443;28;20038;-62
2022/01/02 10:57:25;;;;;;;22.25;6.97;;;11.20;99.90;;;;;;4970293;28;20500;-67
2022/01/02 10:59:55;;;;;;;21.70;5.93;;;11.30;99.90;;;;;;5005001;28;20065;-66
2022/01/02 11:02:24;;;;;;;18.05;6.35;;;11.40;99.90;;;;;;5009357;28;20042;-66
2022/01/02 11:04:59;;;;;;;19.05;5.70;;;11.40;99.90;;;;;;5003415;28;20058;-64
2022/01/02 11:07:25;;;;;;;15.40;6.57;;;11.50;99.90;;;;;;5002969;28;20073;-67
2022/01/02 11:09:56;;;;;;;20.65;6.13;;;11.50;99.90;;;;;;4990826;28;20064;-66
2022/01/02 11:12:23;;;;;;;17.65;5.88;;;11.50;99.90;;;;;;4997699;28;20082;-64
2022/01/02 11:14:50;;;;;;;15.85;5.60;;;11.60;99.90;;;;;;4980297;28;20234;-63
2022/01/02 11:17:17;;;;;;;19.95;5.50;;;11.60;99.90;;;;;;4971907;28;20400;-64
2022/01/02 11:19:43;;;;;;;15.68;5.57;;;11.60;99.90;;;;;;4989605;28;20053;-65
2022/01/02 11:22:45;;;;;;;18.52;6.28;;;11.70;99.90;;;;;;4995191;28;20042;-68
2022/01/02 11:25:25;;;;;;;15.05;5.57;;;11.70;99.90;;;;;;4935762;28;20076;-65
2022/01/02 11:27:58;;;;;;;19.08;5.85;;;11.60;99.90;;;;;;4987657;28;20077;-65
2022/01/02 11:30:33;;;;;;;20.40;5.18;;;11.70;99.90;;;;;;5009162;28;20046;-61
2022/01/02 11:33:15;;;;;;;25.20;5.03;;;11.60;99.90;;;;;;4983806;28;20052;-64
2022/01/02 11:35:48;;;;;;;20.30;5.40;;;11.60;99.90;;;;;;4971245;28;20674;-66
2022/01/02 11:38:19;;;;;;;21.27;6.07;;;11.60;99.90;;;;;;5005375;28;20080;-64
2022/01/02 11:40:57;;;;;;;23.75;6.38;;;11.60;99.90;;;;;;5000951;28;20044;-63
2022/01/02 11:43:46;;;;;;;22.10;5.47;;;11.60;99.90;;;;;;4993537;28;20044;-62
2022/01/02 11:46:18;;;;;;;17.90;5.07;;;11.60;99.90;;;;;;5012135;28;20046;-65
2022/01/02 11:49:36;;;;;;;13.93;4.18;;;11.60;99.90;;;;;;5000018;28;20038;-64
2022/01/02 11:51:56;;;;;;;16.98;4.20;;;11.60;99.90;;;;;;4988360;28;20053;-65
2022/01/02 11:54:30;;;;;;;17.55;4.50;;;11.60;99.90;;;;;;5020463;28;20042;-63
2022/01/02 11:57:19;;;;;;;20.25;5.03;;;11.60;99.90;;;;;;4987752;28;20046;-63
2022/01/02 11:59:46;;;;;;;20.70;3.88;;;11.60;99.90;;;;;;4975069;28;20056;-65
2022/01/02 12:02:26;;;;;;;20.77;5.05;;;11.70;99.90;;;;;;4987156;28;20604;-63
2022/01/02 12:05:02;;;;;;;19.05;4.28;;;11.70;99.90;;;;;;5020758;28;20045;-65
2022/01/02 12:07:34;;;;;;;20.33;4.53;;;11.70;99.90;;;;;;5017482;28;20030;-65
2022/01/02 12:10:23;;;;;;;26.45;5.13;;;11.70;99.90;;;;;;4997261;28;20091;-65
2022/01/02 12:13:13;;;;;;;18.00;4.40;;;11.70;99.90;;;;;;5016594;28;20046;-64
2022/01/02 12:15:38;;;;;;;25.90;5.63;;;11.70;99.90;;;;;;4977578;28;20046;-65
2022/01/02 12:18:28;;;;;;;25.80;5.03;;;11.70;99.90;;;;;;4989779;28;21024;-62
2022/01/02 12:20:56;;;;;;;21.05;4.75;;;11.70;99.90;;;;;;4994454;28;20077;-67
2022/01/02 12:23:42;;;;;;;24.15;4.90;;;11.60;99.90;;;;;;4996865;28;20084;-67
2022/01/02 12:26:11;;;;;;;18.33;4.07;;;11.60;99.90;;;;;;5008110;28;20046;-64
2022/01/02 12:28:43;;;;;;;23.15;5.00;;;11.70;99.90;;;;;;5008360;28;20771;-66
2022/01/02 12:31:11;;;;;;;18.45;4.43;;;11.60;99.90;;;;;;5015967;28;20522;-66
2022/01/02 12:33:37;;;;;;;17.40;4.32;;;11.60;99.90;;;;;;4990983;28;20073;-63
2022/01/02 12:36:22;;;;;;;15.27;3.47;;;11.60;99.90;;;;;;4979745;28;20048;-66
2022/01/02 12:38:53;;;;;;;14.98;3.92;;;11.60;99.90;;;;;;4950136;28;20122;-65
2022/01/02 12:41:27;;;;;;;19.90;3.90;;;11.60;99.90;;;;;;4980422;28;20042;-67
2022/01/02 12:44:01;;;;;;;18.90;4.13;;;11.60;99.90;;;;;;5015800;28;20395;-67
2022/01/02 12:46:39;;;;;;;20.63;4.38;;;11.60;99.90;;;;;;5008469;28;20048;-65